Detall de PIREP

Printer-friendly versionPDF version

[2011/02/26 22:58:00]
Flight IATA:CT3108
Pilot Number:026
Company ICAO:CAT
Aircraft Type:DC85/A
PAX:132
Departing Airport: LIEA
Destination Airport: LEZG
Alternate Airport:LEDA
Online: VATSIM
Route:GINOX UM601 BCN UN725 LOBAR
Flight Level:F330
No Slew and time accel
No pause
Crash detect
Detect pilot in Cockpit between each 30 and 45 minutes
22:58 Zero fuel Weight: 179371 Lbs, Fuel Weight: 27001 Lbs
22:58 VATSIM:LIEA 262250Z 00000KT 9999 SCT040 05/03 Q1018
22:58 VATSIM:LEZG 262300Z 28008KT 250V310 CAVOK 10/04 Q1024
22:59 VOICE CATALONIAN / INTERHUB ROUTE CT3108
23:03 Parking Brakes off
23:09 Take-off
23:09 Take off Weight: 205454 Lbs
23:09 Wind: 288º @ 000 Knots Heading: 204º
23:09 POS N40º 37´ 33´´ E008º 17´ 14´´
23:09 Flaps:3 at 152 Knots
23:09 Gear Up: 153 Knots
23:10 Flaps:2 at 136 Knots
23:10 Flaps:1 at 145 Knots
23:12 Flaps:0 at 214 Knots
23:24 Wind:313º@005 Knots Heading: 272º Ground Speed: 385 Knots Altitude 25390 ft
23:33 TOC
23:33 Fuel Weight: 19722 Lb
23:39 Wind:294º@018 Knots Heading: 279º Ground Speed: 453 Knots Altitude 33129 ft
23:54 Wind:254º@023 Knots Heading: 275º Ground Speed: 451 Knots Altitude 33188 ft
23:54 TOD
23:54 Fuel Weight: 14782 Lb
00:09 Wind:291º@012 Knots Heading: 287º Ground Speed: 359 Knots Altitude 11794 ft
00:22 Gear Down: 240 Knots
00:23 Flaps:1 at 201 Knots
00:23 Flaps:2 at 177 Knots
00:24 Wind:306º@007 Knots Heading: 315º Ground Speed: 148 Knots Altitude 1781 ft
00:24 Flaps:3 at 153 Knots
00:25 Flaps:4 at 161 Knots
00:25 Flaps:5 at 152 Knots
00:25 Flaps:4 at 140 Knots
00:25 Flaps:3 at 147 Knots
00:26 Gear Up: 161 Knots
00:26 Flaps:2 at 185 Knots
00:27 Flaps:1 at 227 Knots
00:36 Gear Down: 230 Knots
00:37 Flaps:2 at 210 Knots
00:37 Flaps:3 at 197 Knots
00:38 Flaps:4 at 132 Knots
00:38 TouchDown:Rate -163 ft/min Speed: 127 Knots
00:39 Wind:292º@007 Knots Heading: 300º Ground Speed: 105 Knots Altitude 872 ft
00:39 VATSIM:LEZG 270030Z 30012KT CAVOK 10/04 Q1023
00:39 Land
00:39 Wind:292º@007 Knots
00:39 Heading: 299º
00:39 Flight Duration: 01:30
00:39 Landing Weight: 188290 Lbs
00:39 POS N41º 39´ 40´´ W001º 01´ 19´´
00:43 Parking brakes on
00:43 Block to Block Duration: 01:41
00:43 Final Fuel: 8520 Lbls
00:43 Spent Fuel: 18481 Lbls
00:43 Flight Length: 510 NM
00:43 TOD Land Length: 215 NM

Exportar CSV

Powered by Drupal - Modified by Danger4k